Time;durP1;ratioP1;P1;durP2;ratioP2;P2;SDS_P1;SDS_P2;PMS_P1;PMS_P2;Temp;Humidity;BMP_temperature;BMP_pressure;BME280_temperature;BME280_humidity;BME280_pressure;Samples;Min_cycle;Max_cycle;Signal;HPM_P1;HPM_P2
2021/11/01 00:01:26;;;;;;;31.90;29.80;;;;;;;11.17;100.00;99227.05;1916312;74;39608;-66
2021/11/01 00:06:50;;;;;;;31.03;29.13;;;;;;;11.19;100.00;99215.05;1901703;74;86547;-68
2021/11/01 00:12:15;;;;;;;32.53;30.73;;;;;;;11.21;100.00;99211.34;1892469;74;39585;-68
2021/11/01 00:17:40;;;;;;;33.50;31.50;;;;;;;11.06;100.00;99213.83;1914052;74;75606;-69
2021/11/01 00:23:08;;;;;;;33.43;31.43;;;;;;;11.11;100.00;99216.44;1831698;76;86425;-71
2021/11/01 00:28:31;;;;;;;36.00;33.50;;;;;;;11.00;100.00;99216.52;1915254;74;39508;-68
2021/11/01 00:33:56;;;;;;;35.40;32.97;;;;;;;10.99;100.00;99219.89;1892688;74;85497;-69
2021/11/01 00:39:21;;;;;;;35.53;33.00;;;;;;;10.93;100.00;99220.62;1917310;74;39581;-71
2021/11/01 00:44:46;;;;;;;36.10;33.83;;;;;;;11.09;100.00;99218.72;1872059;75;86627;-66
2021/11/01 00:50:11;;;;;;;35.17;32.87;;;;;;;11.03;100.00;99207.55;1889453;74;86389;-66
2021/11/01 00:55:48;;;;;;;34.83;32.83;;;;;;;11.10;100.00;99203.69;1875297;74;39615;-69
2021/11/01 01:01:02;;;;;;;36.20;33.23;;;;;;;10.99;100.00;99189.33;1782775;80;86348;-68
2021/11/01 01:06:28;;;;;;;36.40;34.10;;;;;;;10.91;100.00;99189.56;1878856;74;39874;-68
2021/11/01 01:11:54;;;;;;;35.97;33.60;;;;;;;10.92;100.00;99193.98;1901750;75;86203;-66
2021/11/01 01:17:20;;;;;;;38.00;35.27;;;;;;;11.02;100.00;99203.95;1918130;74;39585;-66
2021/11/01 01:22:46;;;;;;;38.13;35.53;;;;;;;11.06;100.00;99214.65;1896901;75;86798;-67
2021/11/01 01:28:12;;;;;;;38.40;35.80;;;;;;;10.92;100.00;99206.48;1901759;74;86257;-66
2021/11/01 01:33:43;;;;;;;39.03;36.07;;;;;;;10.88;100.00;99205.50;1913048;74;39787;-66
2021/11/01 01:39:07;;;;;;;42.57;39.77;;;;;;;10.92;100.00;99212.03;1889812;74;86699;-69
2021/11/01 01:44:39;;;;;;;41.20;38.60;;;;;;;10.80;100.00;99211.88;1914309;74;39522;-66
2021/11/01 01:50:06;;;;;;;41.50;38.23;;;;;;;10.88;100.00;99206.89;1760613;80;85423;-67
2021/11/01 01:55:31;;;;;;;42.07;39.20;;;;;;;11.00;100.00;99217.91;1877621;74;39544;-66
2021/11/01 02:01:08;;;;;;;38.57;35.97;;;;;;;10.86;100.00;99213.36;1777450;80;86052;-66
2021/11/01 02:06:49;;;;;;;40.90;37.63;;;;;;;10.96;100.00;99212.19;1915509;74;39529;-68
2021/11/01 02:12:18;;;;;;;40.60;37.67;;;;;;;10.86;100.00;99215.32;1918762;74;39782;-69
2021/11/01 02:18:05;;;;;;;41.07;38.20;;;;;;;10.86;100.00;99206.98;1881330;73;86218;-69
2021/11/01 02:23:35;;;;;;;39.50;36.97;;;;;;;10.87;100.00;99201.66;1915003;74;39558;-69
2021/11/01 02:29:00;;;;;;;40.07;37.30;;;;;;;10.93;100.00;99197.01;1891015;74;86527;-67
2021/11/01 02:34:31;;;;;;;38.83;35.63;;;;;;;11.02;100.00;99198.39;1915249;74;39782;-69
2021/11/01 02:39:58;;;;;;;38.83;36.23;;;;;;;11.00;100.00;99206.79;1903681;74;86534;-65
2021/11/01 02:45:25;;;;;;;39.60;37.00;;;;;;;10.94;100.00;99202.82;1916573;74;39453;-67
2021/11/01 02:50:56;;;;;;;39.33;36.37;;;;;;;11.02;100.00;99206.73;1936666;73;86667;-71
2021/11/01 02:56:21;;;;;;;40.33;37.70;;;;;;;11.00;100.00;99208.18;1917445;74;39790;-70
2021/11/01 03:02:05;;;;;;;39.80;37.07;;;;;;;11.01;100.00;99209.25;1875467;75;86750;-69
2021/11/01 03:07:31;;;;;;;38.90;36.10;;;;;;;10.90;100.00;99207.39;1915723;74;39779;-66
2021/11/01 03:12:59;;;;;;;39.10;36.50;;;;;;;10.94;100.00;99213.93;1905165;74;86396;-66
2021/11/01 03:18:30;;;;;;;38.53;35.87;;;;;;;10.95;100.00;99220.30;1890112;74;39634;-67
2021/11/01 03:23:56;;;;;;;39.90;37.10;;;;;;;10.97;100.00;99224.95;1797511;79;85684;-71
2021/11/01 03:29:22;;;;;;;36.63;34.13;;;;;;;10.89;100.00;99236.88;1918006;74;39752;-70
2021/11/01 03:34:47;;;;;;;38.77;36.17;;;;;;;10.95;100.00;99227.25;1901868;75;85437;-68
2021/11/01 03:40:18;;;;;;;38.40;35.80;;;;;;;10.95;100.00;99250.27;1884912;74;86422;-68
2021/11/01 03:45:41;;;;;;;39.87;37.17;;;;;;;10.95;100.00;99243.91;1913629;74;39586;-68
2021/11/01 03:51:09;;;;;;;38.47;35.80;;;;;;;10.92;100.00;99252.88;1785283;79;86024;-71
2021/11/01 03:56:36;;;;;;;34.23;32.10;;;;;;;11.07;100.00;99252.98;1915000;74;39620;-68
2021/11/01 04:02:00;;;;;;;37.67;35.20;;;;;;;11.10;100.00;99253.13;1903616;74;85671;-70
2021/11/01 04:07:24;;;;;;;36.33;33.73;;;;;;;11.10;100.00;99250.36;1916894;74;39574;-65
2021/11/01 04:12:50;;;;;;;38.57;36.13;;;;;;;11.06;100.00;99263.84;1901978;73;86897;-71
2021/11/01 04:18:24;;;;;;;38.47;35.80;;;;;;;11.06;100.00;99269.39;1875786;74;39398;-66
2021/11/01 04:23:41;;;;;;;40.73;37.77;;;;;;;11.06;100.00;99276.34;1867287;74;39629;-66
2021/11/01 04:29:07;;;;;;;37.83;35.50;;;;;;;11.02;100.00;99272.02;1938878;73;86155;-66
2021/11/01 04:34:33;;;;;;;39.00;36.33;;;;;;;11.02;100.00;99276.18;1915523;74;39775;-69
2021/11/01 04:40:10;;;;;;;38.13;35.60;;;;;;;10.98;100.00;99284.92;1902360;74;86608;-66
2021/11/01 04:57:01;;;;;;;39.20;36.70;;;;;;;11.03;100.00;99282.56;1890827;74;86416;-68
2021/11/01 05:02:27;;;;;;;39.73;36.93;;;;;;;11.01;100.00;99286.22;1868912;72;39884;-70
2021/11/01 05:07:53;;;;;;;42.13;39.00;;;;;;;10.99;100.00;99289.34;1902115;73;85688;-69
2021/11/01 05:13:23;;;;;;;42.23;39.33;;;;;;;10.89;100.00;99283.53;1918625;74;39525;-69
2021/11/01 05:18:48;;;;;;;43.13;40.20;;;;;;;10.83;100.00;99292.33;1885276;74;39466;-69
2021/11/01 05:24:12;;;;;;;42.53;39.30;;;;;;;10.98;100.00;99296.60;1762166;80;86855;-66
2021/11/01 05:29:36;;;;;;;40.43;37.77;;;;;;;10.73;100.00;99294.88;1914609;74;39524;-69
2021/11/01 05:35:01;;;;;;;43.87;40.97;;;;;;;10.75;100.00;99306.45;1847754;76;86321;-71
2021/11/01 05:40:26;;;;;;;42.43;39.73;;;;;;;10.68;100.00;99309.47;1871428;74;42189;-68
2021/11/01 05:45:51;;;;;;;42.40;39.60;;;;;;;10.65;100.00;99312.90;1901933;73;86741;-66
2021/11/01 05:51:17;;;;;;;43.37;40.20;;;;;;;10.60;100.00;99318.03;1918926;74;39444;-66
2021/11/01 05:56:49;;;;;;;42.83;40.43;;;;;;;10.57;100.00;99315.09;1913596;74;39709;-70
2021/11/01 06:02:34;;;;;;;43.10;40.30;;;;;;;10.47;100.00;99322.57;1902065;74;86327;-64
2021/11/01 06:07:58;;;;;;;43.33;40.63;;;;;;;10.50;100.00;99323.87;1902422;73;85342;-66
2021/11/01 06:13:29;;;;;;;41.97;38.77;;;;;;;10.60;100.00;99336.64;1917660;74;39705;-66
2021/11/01 06:18:54;;;;;;;41.50;38.60;;;;;;;10.42;100.00;99332.99;1905926;74;86305;-66
2021/11/01 06:24:36;;;;;;;42.60;39.57;;;;;;;10.45;100.00;99338.71;1875103;74;39683;-68
2021/11/01 06:29:56;;;;;;;42.13;39.27;;;;;;;10.42;100.00;99342.70;1901856;75;86750;-66
2021/11/01 06:58:23;;;;;;;46.00;42.57;;;;;;;10.15;100.00;99373.39;1777668;80;86619;-71
2021/11/01 07:15:08;;;;;;;41.47;38.73;;;;;;;10.12;100.00;99395.66;1955031;70;85536;-66
2021/11/01 07:20:42;;;;;;;42.37;39.47;;;;;;;10.18;100.00;99408.31;1915925;74;39624;-66
2021/11/01 08:35:46;;;;;;;39.93;37.10;;;;;;;10.83;100.00;99454.24;1825253;77;86552;-66
2021/11/01 08:47:06;;;;;;;39.77;36.37;;;;;;;11.10;100.00;99451.81;1902010;74;86450;-66
2021/11/01 09:04:04;;;;;;;36.90;34.30;;;;;;;11.28;100.00;99445.16;1901984;75;86655;-66
2021/11/01 09:21:10;;;;;;;35.03;32.53;;;;;;;11.49;100.00;99452.30;1902085;75;85545;-68
2021/11/01 09:26:27;;;;;;;33.57;31.53;;;;;;;11.61;100.00;99460.81;1890770;74;39458;-66
2021/11/01 09:37:55;;;;;;;33.97;31.77;;;;;;;11.63;100.00;99455.75;1877605;74;39612;-67
2021/11/01 09:43:08;;;;;;;32.07;29.93;;;;;;;11.65;100.00;99467.36;1902413;74;86245;-66
2021/11/01 09:49:04;;;;;;;31.23;29.00;;;;;;;11.83;100.00;99466.26;1881570;74;85535;-68
2021/11/01 09:54:23;;;;;;;30.43;28.23;;;;;;;12.02;100.00;99463.16;1918407;74;39583;-66
2021/11/01 09:59:51;;;;;;;30.47;28.47;;;;;;;12.16;100.00;99467.13;1902106;73;86356;-66
2021/11/01 10:05:25;;;;;;;30.43;28.37;;;;;;;12.25;100.00;99463.19;1892506;74;39399;-67
2021/11/01 10:10:50;;;;;;;27.37;25.67;;;;;;;12.38;100.00;99471.11;1901951;73;86008;-68
2021/11/01 10:22:12;;;;;;;26.77;25.17;;;;;;;12.69;100.00;99487.58;1831216;77;86707;-66
2021/11/01 10:27:37;;;;;;;29.83;27.47;;;;;;;12.70;100.00;99486.44;1914726;74;39619;-66
2021/11/01 10:33:06;;;;;;;27.50;25.40;;;;;;;12.84;100.00;99498.74;1954941;70;85564;-69
2021/11/01 10:38:35;;;;;;;26.40;24.80;;;;;;;12.82;100.00;99499.09;1915343;74;39539;-69
2021/11/01 10:44:13;;;;;;;28.73;26.97;;;;;;;12.74;100.00;99508.30;1891059;74;86503;-70
2021/11/01 11:12:46;;;;;;;28.10;26.23;;;;;;;12.71;100.00;99502.80;1914184;73;39615;-69
2021/11/01 11:18:22;;;;;;;27.53;25.87;;;;;;;12.88;100.00;99522.03;1887700;74;86920;-69
2021/11/01 11:42:07;;;;;;;28.07;25.90;;;;;;;13.08;100.00;99528.27;1903919;74;86879;-72
2021/11/01 11:52:26;;;;;;;23.90;22.40;;;;;;;13.33;100.00;99530.16;1916682;74;39448;-69
2021/11/01 11:57:59;;;;;;;22.83;21.30;;;;;;;13.52;100.00;99536.71;1902030;75;86754;-73
2021/11/01 12:03:24;;;;;;;22.03;20.37;;;;;;;13.52;100.00;99531.13;1916696;74;39543;-75
2021/11/01 12:11:41;;;;;;;22.40;21.13;;;;;;;13.44;100.00;99525.81;2011051;69;40143;-69
2021/11/01 12:17:09;;;;;;;21.73;20.40;;;;;;;13.59;100.00;99522.46;1923739;73;938819;-67
2021/11/01 12:19:40;;;;;;;20.40;19.10;;;;;;;13.72;100.00;99514.17;1936423;73;936850;-68
2021/11/01 12:25:17;;;;;;;20.43;19.00;;;;;;;13.79;100.00;99499.09;1913908;74;39556;-69
2021/11/01 12:31:00;;;;;;;19.33;17.97;;;;;;;13.77;100.00;99500.85;1889867;74;39515;-69
2021/11/01 12:36:29;;;;;;;20.67;19.47;;;;;;;13.81;100.00;99496.80;1916749;73;86371;-70
2021/11/01 12:42:17;;;;;;;20.73;19.27;;;;;;;13.60;100.00;99503.76;1917320;74;39553;-68
2021/11/01 12:59:14;;;;;;;47.60;44.83;;;;;;;11.97;100.00;99562.09;1914108;74;39590;-70
2021/11/01 13:04:46;;;;;;;47.93;45.20;;;;;;;12.25;100.00;99562.59;1919380;74;39449;-72
2021/11/01 13:10:23;;;;;;;48.33;45.33;;;;;;;12.03;100.00;99557.99;1901938;73;86728;-73
2021/11/01 13:21:36;;;;;;;46.40;43.70;;;;;;;12.14;100.00;99561.29;1907321;74;85495;-70
2021/11/01 13:27:15;;;;;;;43.37;40.97;;;;;;;12.50;100.00;99569.28;1916097;74;39463;-68
2021/11/01 13:38:32;;;;;;;42.90;40.60;;;;;;;12.48;100.00;99548.75;1890186;74;86301;-67
2021/11/01 13:44:12;;;;;;;41.70;39.50;;;;;;;12.78;100.00;99537.14;1915000;73;40379;-68
2021/11/01 13:49:43;;;;;;;40.17;38.07;;;;;;;13.05;100.00;99533.92;1865699;75;86470;-75
2021/11/01 13:55:17;;;;;;;37.03;35.13;;;;;;;13.28;100.00;99537.30;1914125;74;39571;-72
2021/11/01 14:01:29;;;;;;;32.97;31.37;;;;;;;13.08;100.00;99531.05;1983759;71;39496;-70
2021/11/01 14:12:49;;;;;;;36.03;34.30;;;;;;;13.17;100.00;99532.70;1943915;70;86440;-79
2021/11/01 14:18:41;;;;;;;27.57;26.07;;;;;;;13.27;100.00;99532.05;1913340;74;39560;-75
2021/11/01 14:35:54;;;;;;;25.43;24.13;;;;;;;13.23;100.00;99513.78;1836000;77;86170;-76
2021/11/01 15:15:44;;;;;;;27.77;26.30;;;;;;;13.04;100.00;99515.58;1888549;74;39513;-75
2021/11/01 15:21:11;;;;;;;24.60;23.20;;;;;;;13.06;100.00;99520.80;1887552;74;86143;-76
2021/11/01 15:38:24;;;;;;;25.87;24.47;;;;;;;12.85;100.00;99515.72;1885124;74;86542;-68
2021/11/01 16:18:03;;;;;;;35.70;33.70;;;;;;;11.90;100.00;99553.97;1904961;74;86130;-72
2021/11/01 16:26:23;;;;;;;37.30;35.00;;;;;;;11.90;100.00;99555.36;2006850;69;39552;-76
2021/11/01 16:28:56;;;;;;;39.43;37.03;;;;;;;11.73;100.00;99570.88;1910516;73;936447;-76
2021/11/01 16:31:34;;;;;;;39.13;36.80;;;;;;;11.66;100.00;99576.64;1895160;73;937547;-76
2021/11/01 16:34:10;;;;;;;40.60;38.03;;;;;;;11.56;100.00;99575.55;1940614;72;938587;-77
2021/11/01 16:36:48;;;;;;;39.23;36.93;;;;;;;11.42;100.00;99585.42;1922527;73;938537;-77
2021/11/01 16:39:18;;;;;;;39.50;37.10;;;;;;;11.38;100.00;99586.61;1936567;73;936544;-77
2021/11/01 16:44:46;;;;;;;41.17;38.40;;;;;;;11.17;100.00;99591.66;1872341;75;85587;-68
2021/11/01 16:50:16;;;;;;;43.57;40.93;;;;;;;11.18;100.00;99595.52;1903399;74;86274;-81
2021/11/01 16:55:50;;;;;;;41.67;39.10;;;;;;;11.05;100.00;99603.38;1902098;73;85296;-75
2021/11/01 17:01:21;;;;;;;43.50;40.70;;;;;;;10.89;100.00;99609.09;1919170;74;39748;-73
2021/11/01 17:06:51;;;;;;;44.77;41.87;;;;;;;10.76;100.00;99612.77;1872176;74;86647;-77
2021/11/01 17:24:03;;;;;;;47.53;44.53;;;;;;;10.55;100.00;99626.91;1897367;74;39574;-76
2021/11/01 17:29:37;;;;;;;45.37;42.57;;;;;;;10.58;100.00;99622.10;1880315;74;39589;-79
2021/11/01 17:35:11;;;;;;;45.77;42.57;;;;;;;10.55;100.00;99631.89;1903748;74;86430;-68
2021/11/01 18:43:37;;;;;;;44.73;41.67;;;;;;;9.11;100.00;99687.59;1876043;74;39478;-76
2021/11/01 18:54:48;;;;;;;45.03;42.13;;;;;;;9.40;100.00;99688.72;1902082;73;86314;-73
2021/11/01 19:00:16;;;;;;;46.13;43.00;;;;;;;9.28;100.00;99689.79;1919258;74;39419;-78
2021/11/01 19:05:45;;;;;;;43.57;40.70;;;;;;;8.98;100.00;99700.84;1913744;74;39517;-74
2021/11/01 20:09:24;;;;;;;56.20;51.87;;;;;;;8.14;100.00;99744.94;1902061;74;86448;-69
2021/11/01 20:15:01;;;;;;;53.73;49.73;;;;;;;8.08;100.00;99750.84;1913909;74;39455;-68
2021/11/01 21:29:14;;;;;;;48.50;44.47;;;;;;;7.14;100.00;99794.64;1892936;74;39465;-71
2021/11/01 21:34:41;;;;;;;47.23;43.33;;;;;;;7.05;100.00;99799.12;1874017;74;39627;-71
2021/11/01 21:40:09;;;;;;;48.90;44.90;;;;;;;7.50;100.00;99802.59;1793686;79;86578;-68
2021/11/01 21:45:33;;;;;;;47.43;43.77;;;;;;;6.98;100.00;99799.98;1914936;74;39550;-71
2021/11/01 21:50:59;;;;;;;47.60;43.70;;;;;;;7.06;100.00;99805.48;1903730;74;86752;-68
2021/11/01 21:56:23;;;;;;;48.43;44.43;;;;;;;6.83;100.00;99816.11;1875768;74;39702;-69
2021/11/01 22:42:31;;;;;;;49.13;45.60;;;;;;;6.01;100.00;99831.11;1918918;74;39416;-71
2021/11/01 22:59:38;;;;;;;51.43;47.63;;;;;;;6.31;100.00;99842.86;1914380;74;39595;-67
2021/11/01 23:05:11;;;;;;;50.27;46.50;;;;;;;6.43;100.00;99849.42;1943980;71;86643;-68
2021/11/01 23:33:37;;;;;;;47.13;43.60;;;;;;;6.08;100.00;99866.09;1914263;74;39593;-72
2021/11/01 23:39:02;;;;;;;48.43;45.03;;;;;;;6.16;100.00;99875.19;1777661;79;85493;-68
2021/11/01 23:44:27;;;;;;;49.43;45.77;;;;;;;5.81;100.00;99870.54;1916247;74;39654;-71
2021/11/01 23:49:51;;;;;;;49.00;45.60;;;;;;;5.74;100.00;99868.60;1901915;75;86442;-71
2021/11/01 23:55:15;;;;;;;45.37;41.97;;;;;;;5.93;100.00;99866.41;1880163;74;39803;-71
